createdAt,value
2019-02-02T00:01:15.956Z,44.33
2019-02-02T00:03:44.096Z,44.00
2019-02-02T00:06:12.268Z,44.60
2019-02-02T00:08:40.406Z,42.93
2019-02-02T00:11:08.540Z,43.67
2019-02-02T00:13:36.720Z,41.37
2019-02-02T00:16:04.860Z,41.27
2019-02-02T00:18:33.012Z,43.10
2019-02-02T00:21:01.188Z,43.57
2019-02-02T00:23:29.328Z,44.00
2019-02-02T00:25:57.472Z,43.63
2019-02-02T00:28:25.666Z,44.97
2019-02-02T00:30:53.808Z,42.83
2019-02-02T00:33:21.944Z,42.37
2019-02-02T00:35:50.122Z,42.67
2019-02-02T00:38:18.263Z,41.67
2019-02-02T00:40:46.404Z,42.97
2019-02-02T00:43:14.572Z,42.87
2019-02-02T00:45:42.711Z,42.33
2019-02-02T00:48:11.024Z,42.80
2019-02-02T00:50:39.188Z,41.27
2019-02-02T00:53:07.333Z,40.57
2019-02-02T00:55:35.476Z,42.53
2019-02-02T00:58:03.653Z,41.37
2019-02-02T01:00:31.980Z,39.63
2019-02-02T01:03:00.121Z,44.00
2019-02-02T01:05:28.296Z,40.87
2019-02-02T01:07:56.432Z,39.57
2019-02-02T01:10:26.211Z,41.37
2019-02-02T01:12:54.371Z,41.73
2019-02-02T01:15:22.505Z,41.17
2019-02-02T01:17:50.638Z,42.07
2019-02-02T01:20:18.807Z,40.37
2019-02-02T01:22:46.939Z,40.37
2019-02-02T01:25:15.256Z,42.17
2019-02-02T01:27:43.479Z,39.07
2019-02-02T01:30:16.156Z,38.97
2019-02-02T01:32:44.964Z,39.40
2019-02-02T01:35:14.309Z,39.53
2019-02-02T01:37:42.449Z,38.60
2019-02-02T01:40:12.211Z,39.97
2019-02-02T01:42:40.371Z,39.90
2019-02-02T01:45:13.321Z,38.03
2019-02-02T01:47:41.506Z,39.00
2019-02-02T01:50:11.432Z,38.00
2019-02-02T01:52:39.572Z,39.97
2019-02-02T01:55:08.674Z,39.70
2019-02-02T01:57:36.840Z,37.47
2019-02-02T02:00:06.608Z,38.87
2019-02-02T02:02:34.741Z,38.67
2019-02-02T02:05:02.909Z,39.40
2019-02-02T02:07:31.058Z,38.67
2019-02-02T02:09:59.185Z,38.50
2019-02-02T02:12:27.353Z,39.33
2019-02-02T02:14:55.480Z,37.17
2019-02-02T02:17:23.657Z,46.48
2019-02-02T02:19:51.842Z,41.70
2019-02-02T02:22:20.969Z,40.63
2019-02-02T02:24:52.265Z,40.77
2019-02-02T02:27:22.071Z,41.90
2019-02-02T02:29:50.229Z,40.17
2019-02-02T02:32:18.401Z,40.13
2019-02-02T02:34:46.561Z,37.73
2019-02-02T02:37:14.704Z,41.13
2019-02-02T02:39:42.857Z,39.97
2019-02-02T02:42:11.040Z,41.37
2019-02-02T02:44:40.726Z,40.87
2019-02-02T02:47:08.900Z,40.07
2019-02-02T02:49:37.082Z,39.70
2019-02-02T02:52:05.235Z,41.37
2019-02-02T02:54:33.372Z,39.40
2019-02-02T02:57:01.635Z,40.73
2019-02-02T02:59:29.799Z,39.77
2019-02-02T03:02:04.628Z,40.33
2019-02-02T03:04:33.050Z,37.40
2019-02-02T03:07:01.185Z,39.40
2019-02-02T03:09:29.339Z,39.43
2019-02-02T03:11:58.014Z,40.83
2019-02-02T03:14:26.176Z,39.00
2019-02-02T03:16:54.308Z,37.83
2019-02-02T03:19:22.471Z,38.40
2019-02-02T03:21:50.627Z,36.83
2019-02-02T03:24:18.768Z,40.30
2019-02-02T03:26:46.977Z,37.47
2019-02-02T03:29:15.141Z,39.23
2019-02-02T03:31:43.279Z,39.07
2019-02-02T03:34:13.633Z,38.83
2019-02-02T03:36:43.136Z,39.87
2019-02-02T03:39:11.728Z,38.83
2019-02-02T03:41:39.893Z,39.57
2019-02-02T03:44:08.035Z,37.37
2019-02-02T03:46:36.312Z,37.83
2019-02-02T03:49:04.481Z,37.77
2019-02-02T03:51:32.629Z,35.77
2019-02-02T03:54:08.504Z,39.27
2019-02-02T03:56:30.612Z,36.93
2019-02-02T03:59:05.976Z,37.57
2019-02-02T04:01:30.182Z,38.00
2019-02-02T04:03:58.388Z,38.97
2019-02-02T04:06:26.545Z,39.10
2019-02-02T04:08:54.702Z,39.53
2019-02-02T04:11:23.002Z,40.67
2019-02-02T04:13:51.120Z,40.87
2019-02-02T04:16:19.268Z,42.17
2019-02-02T04:18:47.447Z,43.80
2019-02-02T04:21:15.597Z,43.77
2019-02-02T04:23:43.728Z,44.97
2019-02-02T04:26:11.897Z,44.10
2019-02-02T04:28:40.056Z,46.13
2019-02-02T04:31:08.203Z,46.90
2019-02-02T04:33:36.383Z,44.40
2019-02-02T04:36:04.520Z,45.13
2019-02-02T04:38:32.665Z,48.57
2019-02-02T04:41:00.844Z,47.03
2019-02-02T04:43:28.992Z,47.10
2019-02-02T04:45:57.148Z,47.97
2019-02-02T04:48:25.337Z,46.57
2019-02-02T04:50:53.483Z,45.47
2019-02-02T04:53:21.631Z,47.40
2019-02-02T04:55:49.830Z,46.27
2019-02-02T04:58:18.088Z,45.73
2019-02-02T05:00:46.259Z,48.17
2019-02-02T05:03:14.440Z,47.27
2019-02-02T05:05:42.591Z,43.27
2019-02-02T05:08:10.753Z,43.50
2019-02-02T05:10:38.929Z,46.40
2019-02-02T05:13:07.078Z,43.40
2019-02-02T05:15:35.230Z,44.07
2019-02-02T05:18:03.400Z,43.83
2019-02-02T05:20:31.543Z,45.07
2019-02-02T05:22:59.688Z,43.37
2019-02-02T05:25:27.857Z,45.23
2019-02-02T05:27:56.003Z,44.57
2019-02-02T05:30:25.714Z,44.97
2019-02-02T05:32:53.877Z,44.77
2019-02-02T05:35:22.003Z,43.93
2019-02-02T05:37:50.175Z,41.90
2019-02-02T05:40:19.209Z,43.67
2019-02-02T05:42:47.358Z,41.03
2019-02-02T05:45:17.119Z,42.03
2019-02-02T05:47:45.283Z,41.30
2019-02-02T05:50:14.889Z,39.37
2019-02-02T05:52:43.032Z,40.17
2019-02-02T05:55:12.606Z,39.70
2019-02-02T05:57:40.736Z,39.03
2019-02-02T06:00:17.828Z,40.00
2019-02-02T06:02:45.959Z,38.97
2019-02-02T06:05:14.263Z,39.97
2019-02-02T06:07:42.571Z,46.75
2019-02-02T06:10:12.347Z,41.07
2019-02-02T06:12:40.481Z,37.83
2019-02-02T06:15:08.651Z,38.27
2019-02-02T06:17:36.791Z,40.27
2019-02-02T06:20:07.325Z,36.97
2019-02-02T06:22:35.489Z,38.63
2019-02-02T06:25:04.393Z,38.43
2019-02-02T06:27:32.535Z,36.77
2019-02-02T06:30:04.344Z,38.50
2019-02-02T06:32:30.485Z,36.07
2019-02-02T06:34:58.738Z,37.27
2019-02-02T06:37:26.884Z,35.70
2019-02-02T06:39:55.021Z,36.73
2019-02-02T06:42:23.156Z,36.63
2019-02-02T06:44:51.314Z,35.27
2019-02-02T06:47:19.548Z,34.00
2019-02-02T06:49:47.689Z,35.30
2019-02-02T06:52:15.863Z,35.97
2019-02-02T06:54:44.016Z,35.53
2019-02-02T06:57:12.315Z,35.73
2019-02-02T06:59:40.489Z,37.97
2019-02-02T07:02:08.620Z,34.77
2019-02-02T07:04:36.775Z,35.57
2019-02-02T07:07:05.047Z,36.20
2019-02-02T07:09:33.179Z,34.00
2019-02-02T07:12:01.332Z,36.43
2019-02-02T07:14:29.494Z,37.13
2019-02-02T07:16:57.633Z,35.20
2019-02-02T07:19:25.771Z,34.30
2019-02-02T07:21:53.927Z,37.63
2019-02-02T07:24:22.067Z,45.98
2019-02-02T07:26:50.164Z,32.87
2019-02-02T07:29:18.333Z,44.63
2019-02-02T07:31:46.478Z,35.67
2019-02-02T07:34:14.620Z,36.10
2019-02-02T07:36:42.812Z,34.50
2019-02-02T07:39:11.026Z,34.23
2019-02-02T07:41:41.128Z,36.33
2019-02-02T07:44:08.996Z,34.80
2019-02-02T07:46:37.127Z,37.90
2019-02-02T07:49:05.469Z,37.47
2019-02-02T07:51:33.628Z,34.53
2019-02-02T07:54:01.763Z,36.90
2019-02-02T07:56:29.899Z,38.07
2019-02-02T07:58:58.277Z,37.97
2019-02-02T08:01:26.413Z,37.13
2019-02-02T08:03:54.558Z,37.33
2019-02-02T08:06:22.719Z,37.77
2019-02-02T08:08:50.849Z,35.57
2019-02-02T08:11:18.989Z,38.27
2019-02-02T08:13:47.156Z,40.50
2019-02-02T08:16:15.293Z,38.83
2019-02-02T08:18:43.460Z,37.23
2019-02-02T08:21:11.631Z,39.80
2019-02-02T08:23:39.771Z,37.13
2019-02-02T08:26:07.912Z,37.10
2019-02-02T08:28:36.084Z,38.50
2019-02-02T08:31:04.330Z,39.10
2019-02-02T08:33:32.468Z,39.03
2019-02-02T08:36:00.623Z,38.57
2019-02-02T08:38:28.767Z,40.07
2019-02-02T08:40:57.705Z,39.83
2019-02-02T08:43:25.876Z,40.53
2019-02-02T08:45:54.084Z,38.90
2019-02-02T08:48:22.305Z,39.47
2019-02-02T08:50:50.476Z,38.53
2019-02-02T08:53:18.968Z,36.90
2019-02-02T08:55:47.116Z,37.87
2019-02-02T08:58:15.371Z,37.47
2019-02-02T09:00:43.503Z,37.63
2019-02-02T09:03:11.668Z,38.20
2019-02-02T09:05:39.954Z,38.53
2019-02-02T09:08:08.102Z,38.60
2019-02-02T09:10:36.234Z,38.13
2019-02-02T09:13:04.483Z,40.40
2019-02-02T09:15:32.634Z,38.77
2019-02-02T09:18:00.768Z,39.13
2019-02-02T09:20:28.937Z,38.23
2019-02-02T09:23:04.200Z,37.77
2019-02-02T09:25:27.159Z,38.65
2019-02-02T09:27:55.332Z,39.53
2019-02-02T09:30:24.543Z,39.37
2019-02-02T09:32:52.694Z,40.57
2019-02-02T09:35:20.874Z,40.75
2019-02-02T09:37:49.015Z,38.43
2019-02-02T09:40:18.119Z,40.33
2019-02-02T09:42:46.397Z,39.13
2019-02-02T09:45:15.520Z,39.83
2019-02-02T09:47:43.667Z,40.93
2019-02-02T09:50:13.511Z,39.37
2019-02-02T09:52:41.652Z,41.77
2019-02-02T09:55:11.455Z,38.83
2019-02-02T09:57:39.629Z,38.17
2019-02-02T10:00:09.401Z,40.37
2019-02-02T10:02:37.556Z,37.23
2019-02-02T10:05:06.196Z,38.53
2019-02-02T10:07:34.352Z,37.90
2019-02-02T10:10:02.496Z,37.00
2019-02-02T10:12:30.664Z,39.80
2019-02-02T10:15:00.216Z,39.40
2019-02-02T10:17:28.356Z,37.30
2019-02-02T10:19:56.532Z,36.10
2019-02-02T10:22:24.670Z,37.50
2019-02-02T10:24:52.810Z,38.00
2019-02-02T10:27:20.976Z,35.03
2019-02-02T10:29:49.125Z,34.30
2019-02-02T10:32:17.272Z,33.83
2019-02-02T10:34:45.482Z,34.60
2019-02-02T10:37:13.644Z,35.03
2019-02-02T10:39:41.789Z,35.80
2019-02-02T10:42:09.955Z,35.10
2019-02-02T10:44:38.100Z,33.93
2019-02-02T10:47:06.369Z,35.47
2019-02-02T10:49:34.532Z,32.20
2019-02-02T10:52:02.676Z,34.33
2019-02-02T10:54:30.848Z,32.93
2019-02-02T10:56:59.000Z,34.67
2019-02-02T10:59:27.149Z,32.83
2019-02-02T11:01:55.429Z,34.63
2019-02-02T11:04:23.633Z,35.37
2019-02-02T11:06:51.785Z,36.87
2019-02-02T11:09:20.095Z,37.77
2019-02-02T11:11:48.430Z,35.10
2019-02-02T11:14:16.528Z,33.23
2019-02-02T11:16:46.018Z,32.40
2019-02-02T11:19:14.603Z,34.70
2019-02-02T11:21:43.008Z,35.07
2019-02-02T11:24:11.581Z,32.27
2019-02-02T11:26:39.737Z,34.23
2019-02-02T11:29:08.054Z,32.17
2019-02-02T11:31:36.215Z,33.40
2019-02-02T11:34:04.484Z,31.37
2019-02-02T11:36:32.625Z,31.23
2019-02-02T11:39:00.765Z,31.93
2019-02-02T11:41:28.935Z,30.60
2019-02-02T11:43:57.085Z,33.13
2019-02-02T11:46:25.221Z,32.23
2019-02-02T11:48:53.395Z,33.30
2019-02-02T11:51:21.545Z,30.67
2019-02-02T11:53:50.594Z,34.27
2019-02-02T11:56:18.768Z,32.40
2019-02-02T11:58:46.908Z,32.73
2019-02-02T12:01:16.128Z,32.23
2019-02-02T12:03:44.300Z,32.60
2019-02-02T12:06:12.447Z,30.93
2019-02-02T12:08:40.592Z,31.50
2019-02-02T12:11:08.920Z,29.03
2019-02-02T12:13:37.072Z,27.87
2019-02-02T12:16:05.214Z,31.57
2019-02-02T12:18:33.383Z,29.77
2019-02-02T12:21:01.527Z,28.00
2019-02-02T12:23:29.817Z,26.17
2019-02-02T12:25:57.972Z,27.33
2019-02-02T12:28:26.108Z,26.50
2019-02-02T12:30:55.484Z,24.13
2019-02-02T12:33:25.905Z,24.00
2019-02-02T12:35:53.476Z,23.90
2019-02-02T12:38:21.629Z,22.97
2019-02-02T12:40:49.807Z,22.60
2019-02-02T12:43:17.948Z,22.63
2019-02-02T12:45:47.169Z,22.60
2019-02-02T12:48:19.911Z,27.30
2019-02-02T12:50:48.048Z,22.73
2019-02-02T12:53:16.260Z,23.43
2019-02-02T12:55:44.546Z,21.47
2019-02-02T12:58:12.750Z,21.17
2019-02-02T13:00:40.920Z,19.93
2019-02-02T13:03:10.632Z,19.33
2019-02-02T13:05:39.152Z,17.90
2019-02-02T13:08:07.567Z,16.97
2019-02-02T13:10:35.751Z,17.20
2019-02-02T13:13:03.898Z,16.70
2019-02-02T13:15:32.044Z,15.60
2019-02-02T13:18:00.255Z,16.57
2019-02-02T13:20:28.475Z,17.17
2019-02-02T13:22:56.604Z,15.57
2019-02-02T13:25:25.465Z,16.63
2019-02-02T13:27:53.629Z,16.87
2019-02-02T13:30:23.374Z,16.77
2019-02-02T13:32:51.563Z,16.07
2019-02-02T13:35:20.305Z,16.80
2019-02-02T13:37:48.444Z,17.87
2019-02-02T13:40:17.786Z,18.27
2019-02-02T13:42:45.929Z,18.93
2019-02-02T13:45:14.741Z,17.23
2019-02-02T13:47:42.900Z,19.43
2019-02-02T13:50:12.250Z,17.23
2019-02-02T13:52:40.352Z,17.20
2019-02-02T13:55:08.788Z,17.13
2019-02-02T13:57:36.955Z,16.10
2019-02-02T14:00:09.889Z,16.37
2019-02-02T14:02:38.062Z,15.30
2019-02-02T14:05:07.837Z,15.43
2019-02-02T14:07:35.996Z,15.43
2019-02-02T14:10:05.808Z,16.10
2019-02-02T14:12:34.052Z,16.47
2019-02-02T14:15:02.220Z,16.50
2019-02-02T14:17:30.401Z,16.57
2019-02-02T14:19:58.539Z,18.10
2019-02-02T14:22:26.683Z,16.60
2019-02-02T14:24:54.869Z,17.70
2019-02-02T14:27:23.013Z,16.77
2019-02-02T14:29:51.152Z,18.03
2019-02-02T14:32:19.349Z,18.93
2019-02-02T14:34:47.477Z,20.20
2019-02-02T14:37:15.642Z,19.13
2019-02-02T14:39:43.800Z,19.23
2019-02-02T14:42:11.948Z,20.00
2019-02-02T14:44:40.096Z,18.20
2019-02-02T14:47:08.260Z,18.70
2019-02-02T14:49:36.416Z,17.90
2019-02-02T14:52:04.556Z,18.17
2019-02-02T14:54:32.748Z,18.93
2019-02-02T14:57:00.895Z,19.73
2019-02-02T14:59:29.037Z,19.03
2019-02-02T15:01:57.366Z,19.73
2019-02-02T15:04:25.509Z,20.00
2019-02-02T15:06:53.640Z,20.37
2019-02-02T15:09:21.904Z,21.10
2019-02-02T15:11:49.956Z,19.00
2019-02-02T15:14:18.108Z,20.47
2019-02-02T15:16:46.277Z,20.60
2019-02-02T15:19:14.424Z,20.53
2019-02-02T15:21:42.572Z,20.17
2019-02-02T15:24:10.746Z,21.53
2019-02-02T15:26:38.884Z,21.00
2019-02-02T15:29:07.024Z,21.13
2019-02-02T15:31:35.202Z,19.50
2019-02-02T15:34:03.348Z,19.47
2019-02-02T15:36:31.492Z,20.10
2019-02-02T15:38:59.655Z,18.70
2019-02-02T15:41:27.916Z,20.13
2019-02-02T15:43:56.074Z,19.17
2019-02-02T15:46:24.260Z,18.97
2019-02-02T15:48:52.400Z,19.43
2019-02-02T15:51:22.256Z,20.00
2019-02-02T15:53:50.425Z,18.33
2019-02-02T15:56:18.566Z,20.93
2019-02-02T15:58:46.712Z,21.53
2019-02-02T16:01:14.911Z,19.17
2019-02-02T16:03:49.541Z,19.53
2019-02-02T16:06:12.866Z,17.97
2019-02-02T16:08:41.050Z,16.97
2019-02-02T16:11:09.195Z,16.63
2019-02-02T16:13:37.320Z,16.37
2019-02-02T16:16:05.536Z,15.70
2019-02-02T16:18:33.685Z,16.90
2019-02-02T16:21:01.839Z,15.33
2019-02-02T16:23:30.005Z,16.20
2019-02-02T16:25:58.260Z,16.00
2019-02-02T16:28:26.396Z,17.03
2019-02-02T16:30:54.560Z,16.77
2019-02-02T16:33:24.332Z,16.03
2019-02-02T16:35:52.500Z,16.97
2019-02-02T16:38:20.692Z,18.47
2019-02-02T16:40:48.827Z,18.67
2019-02-02T16:43:16.989Z,20.03
2019-02-02T16:45:45.839Z,19.30
2019-02-02T16:48:13.999Z,19.00
2019-02-02T16:50:42.134Z,19.47
2019-02-02T16:53:10.309Z,19.60
2019-02-02T16:55:38.437Z,22.07
2019-02-02T16:58:06.700Z,19.43
2019-02-02T17:00:34.872Z,21.73
2019-02-02T17:03:03.006Z,21.37
2019-02-02T17:05:31.146Z,22.27
2019-02-02T17:07:59.329Z,23.13
2019-02-02T17:10:28.639Z,23.17
2019-02-02T17:12:56.844Z,22.90
2019-02-02T17:15:25.009Z,23.97
2019-02-02T17:17:53.164Z,24.87
2019-02-02T17:20:22.964Z,23.87
2019-02-02T17:22:51.428Z,23.93
2019-02-02T17:25:22.375Z,24.87
2019-02-02T17:27:49.950Z,23.90
2019-02-02T17:30:24.649Z,24.93
2019-02-02T17:32:55.182Z,25.37
2019-02-02T17:35:24.486Z,24.83
2019-02-02T17:37:52.656Z,26.00
2019-02-02T17:40:25.268Z,26.17
2019-02-02T17:42:53.404Z,25.77
2019-02-02T17:45:24.204Z,25.67
2019-02-02T17:47:52.351Z,26.93
2019-02-02T17:50:21.258Z,26.17
2019-02-02T17:52:49.430Z,26.87
2019-02-02T17:55:17.573Z,25.93
2019-02-02T17:57:45.722Z,25.87
2019-02-02T18:00:26.043Z,26.63
2019-02-02T18:02:54.173Z,25.93
2019-02-02T18:05:23.188Z,26.83
2019-02-02T18:07:51.356Z,25.47
2019-02-02T18:10:19.631Z,24.60
2019-02-02T18:12:47.784Z,26.50
2019-02-02T18:15:16.129Z,24.73
2019-02-02T18:17:45.178Z,22.60
2019-02-02T18:20:16.241Z,22.53
2019-02-02T18:22:44.430Z,21.87
2019-02-02T18:25:19.042Z,20.50
2019-02-02T18:27:47.179Z,16.90
2019-02-02T18:30:19.695Z,15.73
2019-02-02T18:32:47.835Z,15.17
2019-02-02T18:35:17.537Z,15.07
2019-02-02T18:37:45.741Z,15.37
2019-02-02T18:40:15.047Z,14.13
2019-02-02T18:42:43.184Z,14.80
2019-02-02T18:45:13.008Z,14.33
2019-02-02T18:47:41.201Z,14.33
2019-02-02T18:50:11.112Z,14.33
2019-02-02T18:52:39.289Z,14.60
2019-02-02T18:55:09.061Z,14.13
2019-02-02T18:57:37.195Z,13.57
2019-02-02T19:00:06.999Z,13.70
2019-02-02T19:02:35.148Z,14.80
2019-02-02T19:05:04.380Z,14.67
2019-02-02T19:07:32.935Z,14.30
2019-02-02T19:10:01.075Z,16.37
2019-02-02T19:12:29.212Z,16.10
2019-02-02T19:14:57.384Z,17.37
2019-02-02T19:17:27.070Z,16.67
2019-02-02T19:19:55.240Z,18.43
2019-02-02T19:22:23.412Z,18.27
2019-02-02T19:24:51.581Z,18.40
2019-02-02T19:27:22.126Z,19.40
2019-02-02T19:29:50.283Z,20.30
2019-02-02T19:32:18.436Z,20.50
2019-02-02T19:34:47.464Z,20.50
2019-02-02T19:37:17.715Z,20.17
2019-02-02T19:39:45.831Z,20.97
2019-02-02T19:42:13.967Z,19.83
2019-02-02T19:44:42.130Z,20.47
2019-02-02T19:47:16.251Z,21.13
2019-02-02T19:49:43.710Z,21.17
2019-02-02T19:52:11.874Z,22.30
2019-02-02T19:54:40.012Z,21.63
2019-02-02T19:57:10.843Z,20.90
2019-02-02T19:59:39.145Z,21.30
2019-02-02T20:02:07.268Z,19.60
2019-02-02T20:04:35.404Z,18.10
2019-02-02T20:07:03.581Z,19.97
2019-02-02T20:09:31.718Z,20.17
2019-02-02T20:11:59.864Z,19.83
2019-02-02T20:14:28.039Z,18.83
2019-02-02T20:16:56.300Z,19.73
2019-02-02T20:19:24.442Z,18.90
2019-02-02T20:21:52.617Z,19.80
2019-02-02T20:24:20.755Z,18.97
2019-02-02T20:26:48.903Z,18.53
2019-02-02T20:29:17.080Z,21.20
2019-02-02T20:31:45.293Z,18.77
2019-02-02T20:34:13.435Z,20.27
2019-02-02T20:36:41.612Z,20.20
2019-02-02T20:39:09.752Z,19.73
2019-02-02T20:41:37.892Z,23.00
2019-02-02T20:44:06.064Z,19.87
2019-02-02T20:46:34.200Z,21.03
2019-02-02T20:49:02.339Z,22.33
2019-02-02T20:51:30.510Z,23.40
2019-02-02T20:53:58.655Z,24.13
2019-02-02T20:56:26.807Z,23.87
2019-02-02T20:58:55.104Z,23.60
2019-02-02T21:01:23.257Z,24.80
2019-02-02T21:03:51.402Z,25.77
2019-02-02T21:06:19.585Z,27.40
2019-02-02T21:08:47.732Z,27.77
2019-02-02T21:11:15.863Z,27.60
2019-02-02T21:13:44.533Z,28.47
2019-02-02T21:16:12.704Z,31.07
2019-02-02T21:18:40.857Z,29.10
2019-02-02T21:21:09.147Z,30.90
2019-02-02T21:23:37.283Z,29.57
2019-02-02T21:26:05.431Z,30.47
2019-02-02T21:28:33.897Z,31.43
2019-02-02T21:31:02.035Z,30.10
2019-02-02T21:33:30.308Z,30.80
2019-02-02T21:36:04.150Z,31.73
2019-02-02T21:38:28.258Z,31.63
2019-02-02T21:40:56.399Z,30.83
2019-02-02T21:43:24.563Z,30.80
2019-02-02T21:45:52.703Z,31.07
2019-02-02T21:48:20.843Z,31.47
2019-02-02T21:50:49.031Z,31.57
2019-02-02T21:53:17.192Z,30.87
2019-02-02T21:55:45.325Z,30.97
2019-02-02T21:58:13.504Z,30.93
2019-02-02T22:00:42.092Z,31.20
2019-02-02T22:03:10.221Z,34.40
2019-02-02T22:05:38.379Z,31.13
2019-02-02T22:08:06.585Z,33.03
2019-02-02T22:10:34.725Z,34.07
2019-02-02T22:13:02.884Z,33.40
2019-02-02T22:15:31.094Z,34.30
2019-02-02T22:17:59.227Z,32.40
2019-02-02T22:20:27.402Z,32.90
2019-02-02T22:22:55.643Z,33.20
2019-02-02T22:25:25.552Z,33.27
2019-02-02T22:27:53.716Z,33.73
2019-02-02T22:30:22.927Z,32.50
2019-02-02T22:32:51.252Z,33.93
2019-02-02T22:35:19.425Z,34.63
2019-02-02T22:37:47.560Z,33.67
2019-02-02T22:40:17.720Z,31.90
2019-02-02T22:42:45.892Z,33.20
2019-02-02T22:45:15.399Z,32.60
2019-02-02T22:47:43.537Z,32.00
2019-02-02T22:50:13.097Z,31.97
2019-02-02T22:52:41.294Z,31.57
2019-02-02T22:55:11.008Z,33.53
2019-02-02T22:57:39.175Z,29.90
2019-02-02T23:00:15.640Z,29.63
2019-02-02T23:02:43.815Z,27.07
2019-02-02T23:05:15.432Z,26.07
2019-02-02T23:07:45.491Z,24.60
2019-02-02T23:10:15.287Z,25.20
2019-02-02T23:12:47.987Z,22.90
2019-02-02T23:15:17.781Z,22.97
2019-02-02T23:17:46.016Z,21.33
2019-02-02T23:20:14.148Z,20.67
2019-02-02T23:22:42.317Z,21.53
2019-02-02T23:25:10.576Z,19.50
2019-02-02T23:27:38.717Z,20.33
2019-02-02T23:30:08.566Z,23.20
2019-02-02T23:32:36.708Z,19.70
2019-02-02T23:35:04.845Z,17.93
2019-02-02T23:37:33.009Z,19.47
2019-02-02T23:40:01.140Z,19.10
2019-02-02T23:42:30.646Z,19.00
2019-02-02T23:44:58.816Z,18.10
2019-02-02T23:47:28.905Z,18.83
2019-02-02T23:49:57.017Z,17.83
2019-02-02T23:52:25.189Z,18.00
2019-02-02T23:54:53.328Z,18.20
2019-02-02T23:57:21.485Z,17.60
2019-02-02T23:59:51.042Z,18.67
